Time;durP1;ratioP1;P1;durP2;ratioP2;P2;SDS_P1;SDS_P2;PMS_P1;PMS_P2;Temp;Humidity;BMP_temperature;BMP_pressure;BME280_temperature;BME280_humidity;BME280_pressure;Samples;Min_cycle;Max_cycle;Signal;HPM_P1;HPM_P2
2021/04/05 00:00:16;;;;;;;24.23;14.58;;;;;;;4.31;65.98;94189.24;1799819;79;21064;-58
2021/04/05 00:02:44;;;;;;;24.43;15.28;;;;;;;4.26;66.18;94187.02;1799752;78;22339;-59
2021/04/05 00:05:20;;;;;;;27.27;16.67;;;;;;;4.27;66.53;94194.00;1799904;78;21067;-60
2021/04/05 00:07:49;;;;;;;32.05;19.35;;;;;;;4.33;66.33;94190.95;1799697;79;21462;-58
2021/04/05 00:10:32;;;;;;;35.60;19.65;;;;;;;4.32;66.42;94189.41;1804249;77;21077;-59
2021/04/05 00:13:04;;;;;;;32.80;20.00;;;;;;;4.29;66.57;94191.04;1807619;79;21057;-58
2021/04/05 00:15:31;;;;;;;36.38;20.90;;;;;;;4.24;66.71;94181.98;1807746;79;21199;-59
2021/04/05 00:18:01;;;;;;;34.70;19.87;;;;;;;4.19;66.93;94173.54;1807504;79;21093;-58
2021/04/05 00:20:38;;;;;;;35.60;20.85;;;;;;;4.11;66.89;94174.30;1807696;79;21030;-60
2021/04/05 00:23:07;;;;;;;49.10;22.17;;;;;;;4.03;66.91;94174.25;1807673;79;21141;-59
2021/04/05 00:25:35;;;;;;;32.35;17.50;;;;;;;3.96;67.09;94179.84;1807734;78;21176;-59
2021/04/05 00:28:05;;;;;;;20.52;13.93;;;;;;;3.96;67.06;94185.87;1807623;79;21360;-59
2021/04/05 00:30:35;;;;;;;20.68;13.43;;;;;;;3.93;67.02;94173.88;1807625;78;21073;-59
2021/04/05 00:33:03;;;;;;;24.05;14.75;;;;;;;3.93;66.90;94170.37;1807572;78;21094;-59
2021/04/05 00:35:34;;;;;;;30.32;17.60;;;;;;;3.94;67.34;94164.53;1807498;78;21050;-59
2021/04/05 00:38:06;;;;;;;27.27;17.80;;;;;;;4.02;67.32;94154.28;1807854;79;21445;-59
2021/04/05 00:40:48;;;;;;;24.85;15.80;;;;;;;3.98;67.03;94159.00;1778948;79;22143;-59
2021/04/05 00:43:17;;;;;;;22.90;14.80;;;;;;;3.83;67.16;94155.80;1807740;78;21924;-59
2021/04/05 00:45:46;;;;;;;26.82;16.25;;;;;;;3.73;67.45;94146.48;1807710;79;21585;-59
2021/04/05 00:48:14;;;;;;;36.80;22.65;;;;;;;3.64;67.44;94138.09;1807595;78;21617;-60
2021/04/05 00:50:52;;;;;;;50.85;29.90;;;;;;;3.58;67.99;94132.41;1807600;79;21109;-61
2021/04/05 00:53:34;;;;;;;53.42;32.75;;;;;;;3.61;68.41;94137.00;1807720;79;21374;-59
2021/04/05 00:56:02;;;;;;;55.23;31.42;;;;;;;3.73;68.19;94128.20;1807729;79;21533;-60
2021/04/05 00:58:30;;;;;;;46.58;24.10;;;;;;;3.75;67.99;94120.42;1807436;78;21085;-59
2021/04/05 01:01:05;;;;;;;31.00;18.15;;;;;;;3.78;67.93;94114.13;1779234;79;21423;-59
2021/04/05 01:03:36;;;;;;;26.68;18.95;;;;;;;3.73;67.96;94120.65;1807821;79;21608;-59
2021/04/05 01:06:09;;;;;;;37.90;22.50;;;;;;;3.60;68.15;94113.72;1807713;78;21184;-59
2021/04/05 01:08:37;;;;;;;36.60;21.93;;;;;;;3.56;68.63;94106.22;1807694;79;21596;-59
2021/04/05 01:11:08;;;;;;;28.73;19.50;;;;;;;3.61;68.57;94108.45;1807591;79;21113;-60
2021/04/05 01:13:36;;;;;;;35.78;19.15;;;;;;;3.71;68.27;94106.09;1807597;79;21211;-59
2021/04/05 01:16:05;;;;;;;56.53;34.00;;;;;;;3.76;68.01;94104.27;1807568;79;21118;-58
2021/04/05 01:18:33;;;;;;;37.65;22.85;;;;;;;3.78;67.87;94103.83;1807540;79;21412;-59
2021/04/05 01:21:04;;;;;;;28.65;18.45;;;;;;;3.84;67.64;94104.90;1807523;79;21160;-59
2021/04/05 01:23:32;;;;;;;32.75;18.85;;;;;;;3.90;67.26;94096.41;1807636;78;21077;-58
2021/04/05 01:26:00;;;;;;;42.13;19.27;;;;;;;3.95;66.92;94096.69;1807478;78;21356;-59
2021/04/05 01:28:28;;;;;;;31.10;17.85;;;;;;;3.97;66.72;94084.01;1807582;79;21054;-60
2021/04/05 01:30:57;;;;;;;29.23;16.32;;;;;;;3.96;66.50;94090.05;1807637;79;21200;-59
2021/04/05 01:33:34;;;;;;;36.08;19.05;;;;;;;3.92;66.32;94085.87;1807571;78;21160;-60
2021/04/05 01:36:13;;;;;;;37.00;19.67;;;;;;;3.88;66.45;94086.55;1807516;78;21203;-60
2021/04/05 01:38:44;;;;;;;36.30;18.82;;;;;;;3.81;66.33;94086.09;1807498;79;21093;-59
2021/04/05 01:41:19;;;;;;;26.62;16.07;;;;;;;3.76;66.45;94076.29;1807707;79;21045;-60
2021/04/05 01:43:47;;;;;;;22.60;15.05;;;;;;;3.72;66.44;94075.60;1807640;79;21266;-60
2021/04/05 01:46:18;;;;;;;19.17;14.58;;;;;;;3.64;66.87;94064.67;1807544;79;21121;-59
2021/04/05 01:48:46;;;;;;;19.45;13.85;;;;;;;3.62;66.96;94064.33;1807219;78;21569;-59
2021/04/05 01:51:20;;;;;;;21.85;14.53;;;;;;;3.56;66.84;94064.08;1807678;79;21577;-59
2021/04/05 01:53:51;;;;;;;24.30;15.50;;;;;;;3.47;67.31;94070.48;1807797;79;21466;-59
2021/04/05 01:56:19;;;;;;;28.87;16.37;;;;;;;3.32;67.83;94048.25;1807672;79;21188;-59
2021/04/05 01:58:50;;;;;;;23.52;16.67;;;;;;;3.20;68.38;94065.16;1807590;79;21573;-60
2021/04/05 02:01:21;;;;;;;29.42;17.45;;;;;;;3.10;68.59;94064.78;1807276;79;21549;-59
2021/04/05 02:03:51;;;;;;;26.10;18.90;;;;;;;3.00;69.01;94055.44;1807809;79;21049;-59
2021/04/05 02:06:28;;;;;;;25.10;17.60;;;;;;;2.96;69.20;94052.02;1807577;79;21069;-59
2021/04/05 02:08:56;;;;;;;22.52;17.92;;;;;;;2.93;69.90;94046.06;1807607;78;21913;-59
2021/04/05 02:11:29;;;;;;;43.42;27.40;;;;;;;3.01;69.90;94040.67;1807478;78;21108;-59
2021/04/05 02:13:59;;;;;;;41.98;25.82;;;;;;;2.98;69.65;94034.14;1807654;78;21113;-59
2021/04/05 02:16:28;;;;;;;37.85;23.40;;;;;;;2.89;69.81;94042.05;1807581;79;21204;-60
2021/04/05 02:18:59;;;;;;;44.70;25.12;;;;;;;2.87;70.03;94035.52;1807589;78;21069;-58
2021/04/05 02:21:28;;;;;;;39.95;24.07;;;;;;;2.86;69.96;94038.06;1807676;78;21196;-59
2021/04/05 02:24:04;;;;;;;39.25;21.48;;;;;;;2.86;69.85;94038.06;1807452;79;21132;-58
2021/04/05 02:26:35;;;;;;;35.15;21.12;;;;;;;2.86;70.10;94036.70;1807650;79;21112;-58
2021/04/05 02:29:04;;;;;;;29.15;19.62;;;;;;;2.87;70.32;94030.09;1807595;78;21156;-59
2021/04/05 02:31:34;;;;;;;29.92;19.80;;;;;;;2.95;70.54;94031.48;1807666;79;21073;-59
2021/04/05 02:34:05;;;;;;;32.15;19.48;;;;;;;3.05;70.37;94021.02;1807281;79;21443;-59
2021/04/05 02:36:34;;;;;;;26.80;17.42;;;;;;;3.02;70.31;94022.61;1807253;78;21462;-60
2021/04/05 02:39:10;;;;;;;25.37;17.98;;;;;;;3.04;70.38;94032.47;1807549;79;21137;-59
2021/04/05 02:41:43;;;;;;;24.65;17.50;;;;;;;3.04;70.42;94019.48;1807678;79;21517;-60
2021/04/05 02:44:12;;;;;;;30.77;17.60;;;;;;;3.04;70.78;94015.41;1807448;78;21042;-59
2021/04/05 02:46:40;;;;;;;22.93;17.15;;;;;;;3.11;70.58;94013.33;1807644;79;21354;-58
2021/04/05 02:49:12;;;;;;;26.35;18.65;;;;;;;3.19;70.72;94018.80;1807190;79;21482;-59
2021/04/05 02:51:45;;;;;;;22.00;17.30;;;;;;;3.24;70.47;94011.50;1807701;79;21053;-59
2021/04/05 02:54:13;;;;;;;25.30;16.85;;;;;;;3.21;70.42;94012.34;1807577;79;21178;-58
2021/04/05 02:56:43;;;;;;;26.90;18.57;;;;;;;3.21;70.49;94011.59;1807490;79;21069;-59
2021/04/05 02:59:11;;;;;;;47.13;25.90;;;;;;;3.20;70.47;94001.30;1778634;79;22154;-59
2021/04/05 03:01:39;;;;;;;48.33;27.27;;;;;;;3.25;70.49;94005.49;1807488;78;21090;-59
2021/04/05 03:04:07;;;;;;;66.07;35.80;;;;;;;3.28;70.38;94004.05;1807505;78;21133;-60
2021/04/05 03:06:36;;;;;;;60.60;33.75;;;;;;;3.36;70.39;93997.88;1807647;79;21168;-61
2021/04/05 03:09:07;;;;;;;26.33;16.70;;;;;;;3.47;70.07;93997.08;1807668;79;21199;-59
2021/04/05 03:11:36;;;;;;;20.35;16.30;;;;;;;3.46;69.40;93996.30;1811523;79;22089;-59
2021/04/05 03:14:10;;;;;;;26.42;16.40;;;;;;;3.28;69.24;93990.45;1813023;78;21116;-60
2021/04/05 03:16:40;;;;;;;28.17;18.70;;;;;;;3.13;69.32;93993.30;1813410;79;21069;-60
2021/04/05 03:19:10;;;;;;;25.95;18.23;;;;;;;2.97;69.75;93992.44;1813541;79;21069;-60
2021/04/05 03:21:43;;;;;;;40.05;23.73;;;;;;;2.88;69.95;93988.91;1813456;79;21069;-60
2021/04/05 03:24:13;;;;;;;33.30;22.65;;;;;;;2.78;70.44;93989.11;1813577;79;21383;-59
2021/04/05 03:26:41;;;;;;;38.42;27.80;;;;;;;2.68;70.76;93987.37;1812915;78;21136;-59
2021/04/05 03:29:12;;;;;;;35.80;25.08;;;;;;;2.57;71.20;93985.42;1813306;79;21517;-58
2021/04/05 03:31:40;;;;;;;43.23;26.95;;;;;;;2.48;71.64;93985.20;1813274;78;21056;-59
2021/04/05 03:34:20;;;;;;;39.08;24.77;;;;;;;2.44;72.00;93987.19;1813159;79;21053;-58
2021/04/05 03:37:11;;;;;;;32.75;21.10;;;;;;;2.43;72.25;93981.59;1813237;77;21187;-58
2021/04/05 03:39:39;;;;;;;35.60;22.62;;;;;;;2.32;72.50;93979.05;1813262;78;21061;-59
2021/04/05 03:42:18;;;;;;;37.55;25.35;;;;;;;2.27;72.68;93974.11;1813252;78;21112;-59
2021/04/05 03:45:00;;;;;;;29.45;19.55;;;;;;;2.26;73.23;93971.80;1813419;79;21116;-59
2021/04/05 03:48:02;;;;;;;32.65;23.12;;;;;;;2.34;72.97;93970.52;1813030;79;21061;-59
2021/04/05 03:50:51;;;;;;;29.80;21.17;;;;;;;2.32;73.03;93969.56;1813367;79;21189;-59
2021/04/05 03:53:44;;;;;;;33.23;20.65;;;;;;;2.38;73.17;93969.86;1813338;79;21085;-60
2021/04/05 03:56:20;;;;;;;34.92;24.05;;;;;;;2.34;72.81;93970.52;1813357;79;21101;-59
2021/04/05 03:58:54;;;;;;;59.98;37.53;;;;;;;2.25;73.03;93965.63;1813359;78;21132;-60
2021/04/05 04:01:25;;;;;;;54.23;33.98;;;;;;;2.33;73.09;93971.70;1813427;79;21502;-59
2021/04/05 04:04:11;;;;;;;53.87;35.20;;;;;;;2.39;73.22;93961.89;1813417;79;21431;-60
2021/04/05 04:06:55;;;;;;;50.70;32.10;;;;;;;2.49;72.99;93958.23;1812481;78;21529;-59
2021/04/05 04:09:16;;;;;;;33.98;24.52;;;;;;;2.59;72.73;93961.34;1812237;78;21172;-59
2021/04/05 04:11:48;;;;;;;38.53;23.42;;;;;;;2.65;72.33;93954.27;1813385;79;21561;-59
2021/04/05 04:14:17;;;;;;;37.65;24.67;;;;;;;2.62;72.15;93959.14;1813401;79;21116;-60
2021/04/05 04:16:45;;;;;;;40.78;27.25;;;;;;;2.56;72.13;93951.31;1813326;79;21192;-59
2021/04/05 04:19:13;;;;;;;39.20;26.00;;;;;;;2.60;72.27;93943.29;1813298;79;21168;-59
2021/04/05 04:21:44;;;;;;;44.30;30.90;;;;;;;2.66;72.13;93943.58;1813267;78;21049;-60
2021/04/05 04:24:12;;;;;;;51.92;34.30;;;;;;;2.73;72.31;93941.47;1813336;78;21077;-60
2021/04/05 04:26:40;;;;;;;49.03;33.53;;;;;;;2.85;72.04;93945.55;1786432;79;21093;-59
2021/04/05 04:29:14;;;;;;;56.77;35.38;;;;;;;2.92;71.72;93942.10;1813069;78;21366;-59
2021/04/05 04:31:42;;;;;;;53.78;37.75;;;;;;;2.99;71.43;93934.38;1813485;79;21076;-60
2021/04/05 04:34:16;;;;;;;46.90;32.10;;;;;;;3.06;71.24;93936.98;1812761;79;21053;-59
2021/04/05 04:36:43;;;;;;;50.78;31.57;;;;;;;3.04;70.79;93936.02;1813006;77;21645;-61
2021/04/05 04:39:12;;;;;;;49.00;31.25;;;;;;;2.98;70.79;93925.48;1813519;79;21498;-59
2021/04/05 04:41:42;;;;;;;42.15;28.23;;;;;;;2.97;70.78;93932.68;1813187;79;21467;-59
2021/04/05 04:44:10;;;;;;;48.90;29.07;;;;;;;2.90;70.71;93925.44;1813450;78;21100;-60
2021/04/05 04:46:38;;;;;;;45.80;28.83;;;;;;;2.89;70.84;93927.23;1813428;79;21077;-60
2021/04/05 04:49:11;;;;;;;42.38;29.18;;;;;;;2.89;70.76;93925.26;1813377;79;21122;-60
2021/04/05 04:51:40;;;;;;;59.23;31.77;;;;;;;2.90;70.69;93921.36;1813467;79;21068;-59
2021/04/05 04:54:10;;;;;;;50.60;30.17;;;;;;;2.97;70.84;93920.45;1812736;78;21865;-59
2021/04/05 04:56:38;;;;;;;52.80;35.40;;;;;;;3.00;70.39;93917.68;1786178;79;21088;-59
2021/04/05 04:59:09;;;;;;;57.25;37.50;;;;;;;2.89;70.37;93914.40;1813080;79;21109;-59
2021/04/05 05:01:41;;;;;;;57.23;35.23;;;;;;;2.88;70.44;93922.98;1813247;79;21552;-60
2021/04/05 05:04:22;;;;;;;48.90;34.97;;;;;;;2.95;70.46;93911.96;1813299;79;21049;-62
2021/04/05 05:06:53;;;;;;;55.78;36.40;;;;;;;2.97;70.02;93909.59;1813294;78;22462;-61
2021/04/05 05:09:22;;;;;;;53.73;34.27;;;;;;;2.95;70.11;93906.53;1813297;79;21081;-58
2021/04/05 05:11:50;;;;;;;158.45;100.72;;;;;;;3.01;70.53;93906.20;1806477;79;21073;-59
2021/04/05 05:14:18;;;;;;;81.97;51.40;;;;;;;3.17;70.30;93906.27;1784362;79;21497;-59
2021/04/05 05:16:46;;;;;;;67.62;45.58;;;;;;;3.28;69.76;93893.22;1799677;78;21145;-60
2021/04/05 05:19:15;;;;;;;77.70;47.60;;;;;;;3.23;69.35;93899.16;1799592;79;21358;-60
2021/04/05 05:21:51;;;;;;;70.17;42.78;;;;;;;3.16;69.84;93887.07;1793965;79;21073;-57
2021/04/05 05:24:23;;;;;;;70.42;44.45;;;;;;;3.18;69.68;93886.05;1778026;79;21135;-57
2021/04/05 05:26:52;;;;;;;77.05;42.65;;;;;;;3.09;69.67;93890.70;1775988;78;21619;-57
2021/04/05 05:29:21;;;;;;;72.97;39.40;;;;;;;2.97;69.85;93890.58;1796976;78;21245;-59
2021/04/05 05:31:49;;;;;;;53.50;35.85;;;;;;;2.90;70.17;93878.52;1779583;78;22101;-59
2021/04/05 05:34:20;;;;;;;48.52;33.40;;;;;;;2.88;70.50;93874.84;1782062;78;21134;-59
2021/04/05 05:36:49;;;;;;;50.90;34.53;;;;;;;3.01;70.55;93866.81;1795755;78;21187;-58
2021/04/05 05:39:18;;;;;;;58.23;36.53;;;;;;;3.10;70.17;93872.46;1795185;79;21438;-58
2021/04/05 05:42:34;;;;;;;55.23;36.45;;;;;;;3.04;70.07;93866.00;1795213;79;21415;-59
2021/04/05 05:45:07;;;;;;;48.87;30.25;;;;;;;2.99;70.25;93874.63;1795710;79;21356;-57
2021/04/05 05:48:10;;;;;;;46.42;27.02;;;;;;;2.94;70.27;93872.41;1795336;79;21175;-56
2021/04/05 05:51:10;;;;;;;42.93;27.85;;;;;;;2.90;70.16;93874.44;1770443;79;21379;-59
2021/04/05 05:54:13;;;;;;;38.98;25.37;;;;;;;2.91;70.29;93869.93;1795188;79;21882;-58
2021/04/05 05:57:16;;;;;;;52.08;33.33;;;;;;;3.05;69.91;93861.48;1795129;79;21920;-58
2021/04/05 05:59:51;;;;;;;48.98;29.00;;;;;;;3.09;69.94;93866.86;1794856;79;21402;-59
2021/04/05 06:02:58;;;;;;;32.95;22.73;;;;;;;3.24;69.84;93865.37;1794947;79;21784;-59
2021/04/05 06:06:26;;;;;;;35.23;24.90;;;;;;;3.37;69.41;93862.92;1794906;79;21175;-58
2021/04/05 06:13:03;;;;;;;24.43;18.75;;;;;;;3.72;67.79;93860.14;1794113;77;21455;-59
2021/04/05 06:15:32;;;;;;;38.78;22.25;;;;;;;3.84;67.10;93845.87;1791993;79;21538;-59
2021/04/05 06:18:50;;;;;;;32.83;20.52;;;;;;;4.04;66.76;93841.09;1730251;81;21904;-58
2021/04/05 06:21:52;;;;;;;21.33;15.88;;;;;;;4.28;66.46;93843.01;1709921;83;21182;-60
2021/04/05 06:24:34;;;;;;;21.97;15.48;;;;;;;4.59;65.59;93842.77;1730233;82;21434;-59
2021/04/05 06:27:40;;;;;;;23.12;17.62;;;;;;;4.76;63.55;93836.81;1841255;77;22996;-56
2021/04/05 06:30:44;;;;;;;45.55;24.27;;;;;;;4.78;62.62;93835.03;1818675;78;21184;-59
2021/04/05 06:33:36;;;;;;;37.58;22.42;;;;;;;4.84;61.96;93831.34;1797561;78;21721;-57
2021/04/05 06:36:47;;;;;;;58.63;27.52;;;;;;;4.81;61.92;93823.27;1797988;78;21304;-59
2021/04/05 06:39:23;;;;;;;40.73;20.80;;;;;;;4.97;62.12;93821.22;1786394;80;21490;-57
2021/04/05 06:42:21;;;;;;;27.42;17.95;;;;;;;5.14;60.90;93819.19;1786466;80;21449;-58
2021/04/05 06:45:29;;;;;;;34.85;18.65;;;;;;;5.24;59.08;93818.86;1786575;80;21156;-56
2021/04/05 06:48:12;;;;;;;27.82;15.78;;;;;;;5.38;58.70;93812.37;1725893;80;21479;-59
2021/04/05 06:51:11;;;;;;;23.05;16.10;;;;;;;5.48;57.46;93808.56;1786394;79;21160;-57
2021/04/05 06:54:10;;;;;;;41.28;19.52;;;;;;;5.62;56.52;93802.64;1786236;79;21188;-57
2021/04/05 06:57:06;;;;;;;22.80;14.05;;;;;;;5.76;56.12;93804.17;1757390;80;21239;-58
2021/04/05 06:59:59;;;;;;;16.80;12.23;;;;;;;5.80;54.36;93802.13;1786649;80;21415;-58
2021/04/05 07:03:05;;;;;;;14.80;9.77;;;;;;;5.79;53.29;93802.70;1786674;80;22439;-61
2021/04/05 07:06:01;;;;;;;14.20;9.48;;;;;;;5.83;52.96;93795.78;1786413;80;21910;-58
2021/04/05 07:09:28;;;;;;;35.85;9.83;;;;;;;5.97;51.60;93794.70;1786851;80;21180;-59
2021/04/05 07:12:30;;;;;;;13.75;7.12;;;;;;;6.13;49.96;93784.25;1786268;80;21167;-58
2021/04/05 07:15:30;;;;;;;7.50;6.70;;;;;;;6.30;46.48;93789.71;1786436;80;21430;-61
2021/04/05 07:18:34;;;;;;;7.25;5.72;;;;;;;6.47;45.49;93792.40;1786046;80;21415;-60
2021/04/05 07:21:32;;;;;;;7.50;5.60;;;;;;;6.65;43.68;93787.84;1785903;80;21242;-60
2021/04/05 07:24:27;;;;;;;9.78;4.90;;;;;;;6.78;43.04;93785.04;1782185;80;21776;-57
2021/04/05 07:27:22;;;;;;;7.95;5.05;;;;;;;6.86;41.52;93796.64;1780469;80;21209;-61
2021/04/05 07:30:14;;;;;;;6.53;5.00;;;;;;;6.91;40.80;93784.38;1778838;80;21383;-58
2021/04/05 07:33:06;;;;;;;10.60;5.12;;;;;;;6.97;40.70;93778.47;1779005;80;21200;-66
2021/04/05 07:36:30;;;;;;;9.60;4.30;;;;;;;7.05;40.36;93770.18;1778880;79;21316;-58
2021/04/05 07:39:28;;;;;;;7.53;5.85;;;;;;;7.18;39.97;93781.93;1778339;80;21393;-62
2021/04/05 07:42:08;;;;;;;9.00;6.92;;;;;;;7.26;37.06;93787.30;1778034;80;21431;-60
2021/04/05 07:45:10;;;;;;;31.15;18.27;;;;;;;7.27;38.41;93786.69;1778246;80;21422;-58
2021/04/05 07:48:01;;;;;;;26.10;23.20;;;;;;;7.31;39.01;93773.03;1778845;80;22653;-65
2021/04/05 07:50:58;;;;;;;18.27;10.30;;;;;;;7.41;38.75;93767.00;1778262;80;21411;-55
2021/04/05 07:53:34;;;;;;;13.38;12.13;;;;;;;7.48;37.84;93772.95;1773339;80;21851;-60
2021/04/05 07:56:35;;;;;;;71.33;9.58;;;;;;;7.58;37.92;93763.58;1778271;80;21885;-60
2021/04/05 07:59:34;;;;;;;10.70;9.65;;;;;;;7.65;37.86;93768.76;1778138;80;21167;-59
2021/04/05 08:02:24;;;;;;;86.92;13.32;;;;;;;7.70;37.85;93766.78;1777795;80;21831;-61
2021/04/05 08:05:49;;;;;;;20.48;12.95;;;;;;;7.76;37.68;93758.75;1747267;80;21167;-62
2021/04/05 08:08:45;;;;;;;18.27;8.25;;;;;;;7.80;37.43;93753.88;1777982;80;21201;-59
2021/04/05 08:11:33;;;;;;;15.00;8.88;;;;;;;7.86;38.30;93756.95;1777884;80;21432;-57
2021/04/05 08:14:42;;;;;;;13.45;8.53;;;;;;;7.88;37.72;93757.25;1778092;80;21195;-61
2021/04/05 08:17:49;;;;;;;10.10;8.25;;;;;;;7.82;38.34;93761.80;1778118;80;21819;-67
2021/04/05 08:24:07;;;;;;;13.10;7.95;;;;;;;7.75;38.63;93755.27;1778094;80;21789;-54
2021/04/05 08:26:57;;;;;;;51.15;9.70;;;;;;;7.75;38.41;93764.06;1778291;80;21912;-56
2021/04/05 08:29:45;;;;;;;19.07;6.35;;;;;;;7.77;38.87;93748.72;1779097;80;21376;-65
2021/04/05 08:32:40;;;;;;;18.90;6.58;;;;;;;7.81;38.92;93759.52;1774065;80;21511;-60
2021/04/05 08:35:40;;;;;;;15.05;7.97;;;;;;;7.73;38.26;93769.98;1778205;79;21407;-55
2021/04/05 08:38:35;;;;;;;24.02;7.17;;;;;;;7.64;38.72;93743.97;1778268;80;21180;-58
2021/04/05 08:41:40;;;;;;;35.35;9.85;;;;;;;7.64;39.14;93756.88;1778239;80;21419;-60
2021/04/05 08:44:33;;;;;;;12.88;6.35;;;;;;;7.61;39.44;93748.20;1778178;80;21184;-60
2021/04/05 08:47:03;;;;;;;15.05;8.30;;;;;;;7.62;38.27;93750.50;1778341;80;21212;-61
2021/04/05 08:49:31;;;;;;;12.05;8.88;;;;;;;7.61;38.18;93748.98;1777996;80;21196;-59
2021/04/05 08:52:05;;;;;;;19.07;7.03;;;;;;;7.63;38.75;93760.83;1778280;80;21449;-58
2021/04/05 08:54:36;;;;;;;14.98;7.30;;;;;;;7.66;38.81;93741.54;1778449;80;21176;-57
2021/04/05 08:57:21;;;;;;;9.45;6.20;;;;;;;7.75;39.34;93744.31;1778277;80;21145;-64
2021/04/05 09:00:06;;;;;;;8.05;6.33;;;;;;;7.80;37.82;93745.67;1778111;80;21418;-61
2021/04/05 09:02:40;;;;;;;17.80;6.75;;;;;;;7.84;38.15;93733.96;1746634;80;21908;-57
2021/04/05 09:05:21;;;;;;;8.35;6.05;;;;;;;7.91;39.52;93735.80;1778199;80;21969;-62
2021/04/05 09:08:06;;;;;;;11.55;6.55;;;;;;;7.96;37.56;93737.19;1778291;80;21137;-60
2021/04/05 09:11:05;;;;;;;10.28;6.45;;;;;;;7.97;37.62;93736.74;1778401;80;21161;-61
2021/04/05 09:13:44;;;;;;;6.60;5.42;;;;;;;8.02;38.89;93724.41;1777801;80;21404;-57
2021/04/05 09:16:42;;;;;;;14.98;5.80;;;;;;;8.11;38.86;93724.42;1777661;80;21405;-59
2021/04/05 09:19:34;;;;;;;6.85;6.12;;;;;;;8.11;37.42;93732.02;1777829;80;21261;-58
2021/04/05 09:22:47;;;;;;;6.83;6.10;;;;;;;8.09;37.35;93726.23;1778170;80;21168;-58
2021/04/05 09:25:50;;;;;;;12.78;7.08;;;;;;;8.11;38.18;93721.06;1778159;80;21964;-59
2021/04/05 09:28:59;;;;;;;12.78;6.87;;;;;;;8.21;38.80;93714.41;1778193;80;22903;-60
2021/04/05 09:31:44;;;;;;;17.87;6.47;;;;;;;8.33;38.33;93704.52;1778289;80;21953;-61
2021/04/05 09:34:35;;;;;;;25.43;7.87;;;;;;;8.51;37.88;93714.87;1778119;80;21172;-60
2021/04/05 09:37:27;;;;;;;7.42;5.92;;;;;;;8.60;38.78;93706.62;1777220;80;21879;-63
2021/04/05 09:40:39;;;;;;;8.23;5.67;;;;;;;8.69;36.62;93695.66;1727401;80;21160;-63
2021/04/05 09:43:43;;;;;;;10.32;5.70;;;;;;;8.77;36.36;93698.84;1631722;86;21710;-60
2021/04/05 09:46:46;;;;;;;6.12;5.47;;;;;;;8.93;36.03;93707.47;1704869;81;21896;-58
2021/04/05 09:49:48;;;;;;;13.62;5.62;;;;;;;9.03;35.65;93693.26;1718118;83;21393;-61
2021/04/05 09:52:51;;;;;;;12.00;7.05;;;;;;;9.18;35.76;93699.61;1740883;82;21157;-60
2021/04/05 09:55:31;;;;;;;15.43;6.37;;;;;;;9.36;36.12;93700.14;1741085;80;21713;-58
2021/04/05 09:58:12;;;;;;;13.40;6.28;;;;;;;9.55;35.99;93682.36;1741052;82;21629;-62
2021/04/05 10:00:51;;;;;;;9.55;6.83;;;;;;;9.74;35.24;93688.66;1740821;82;21149;-63
2021/04/05 10:03:20;;;;;;;8.20;6.00;;;;;;;9.80;34.57;93694.28;1740875;82;21157;-58
2021/04/05 10:05:49;;;;;;;7.55;6.30;;;;;;;9.90;34.20;93691.60;1740566;80;21890;-59
2021/04/05 10:08:27;;;;;;;8.10;5.95;;;;;;;10.10;34.10;93693.17;1740734;82;21824;-59
2021/04/05 10:11:02;;;;;;;6.40;5.40;;;;;;;10.24;34.06;93683.62;1715864;82;21447;-59
2021/04/05 10:13:33;;;;;;;17.65;5.62;;;;;;;10.41;33.22;93682.55;1712695;82;21196;-60
2021/04/05 10:16:07;;;;;;;9.88;5.80;;;;;;;10.65;33.68;93675.77;1737490;81;21193;-60
2021/04/05 10:18:36;;;;;;;;;;;;;;;10.98;32.49;93672.96;1743538;82;21411;-58
2021/04/05 10:21:06;;;;;;;11.00;5.72;;;;;;;11.30;32.09;93665.10;1717815;83;20631;-58
2021/04/05 10:23:34;;;;;;;19.45;7.78;;;;;;;11.59;31.79;93668.44;1740916;82;22671;-58
2021/04/05 10:26:03;;;;;;;13.78;8.15;;;;;;;11.86;31.40;93661.93;1740172;82;21181;-57
2021/04/05 10:28:34;;;;;;;13.22;7.90;;;;;;;12.11;30.64;93658.48;1738545;82;21491;-59
2021/04/05 10:31:06;;;;;;;18.60;11.65;;;;;;;12.25;29.60;93650.77;1727295;82;21272;-58
2021/04/05 10:33:41;;;;;;;23.12;13.00;;;;;;;12.49;30.63;93649.89;1718208;83;21455;-58
2021/04/05 10:36:12;;;;;;;9.48;7.42;;;;;;;12.79;30.38;93649.84;1708560;83;21179;-59
2021/04/05 10:38:41;;;;;;;17.25;5.05;;;;;;;13.01;29.40;93650.84;1708759;82;21257;-58
2021/04/05 10:41:10;;;;;;;7.10;5.45;;;;;;;13.20;28.38;93658.14;1727727;82;21902;-58
2021/04/05 10:44:06;;;;;;;8.93;6.03;;;;;;;13.37;27.96;93654.27;1709003;82;21460;-59
2021/04/05 10:50:12;;;;;;;8.33;5.20;;;;;;;13.77;27.84;93636.08;1721544;83;21203;-59
2021/04/05 10:52:43;;;;;;;15.25;7.58;;;;;;;13.98;27.29;93640.84;1721885;83;21943;-62
2021/04/05 10:55:17;;;;;;;15.40;9.78;;;;;;;14.07;26.62;93635.09;1722052;82;21207;-60
2021/04/05 10:57:59;;;;;;;12.10;5.55;;;;;;;14.24;27.75;93622.13;1869211;76;23003;-61
2021/04/05 11:00:35;;;;;;;9.35;6.87;;;;;;;14.39;26.26;93626.83;1836744;78;21415;-57
2021/04/05 11:03:19;;;;;;;8.93;7.15;;;;;;;14.51;26.92;93627.14;1836353;78;21412;-59
2021/04/05 11:05:49;;;;;;;9.63;7.72;;;;;;;14.58;26.73;93616.19;1806377;78;21943;-59
2021/04/05 11:08:21;;;;;;;19.13;6.10;;;;;;;14.62;26.54;93613.31;1836890;78;21916;-60
2021/04/05 11:11:07;;;;;;;7.03;5.10;;;;;;;14.55;26.15;93611.04;1837071;78;21150;-58
2021/04/05 11:13:38;;;;;;;8.33;6.67;;;;;;;14.73;26.84;93616.72;1837097;78;21382;-58
2021/04/05 11:16:12;;;;;;;6.60;5.03;;;;;;;14.98;26.51;93599.89;1836791;78;22724;-63
2021/04/05 11:18:50;;;;;;;11.53;7.42;;;;;;;15.16;25.98;93584.80;1836216;78;21436;-60
2021/04/05 11:21:22;;;;;;;8.10;4.83;;;;;;;15.29;25.82;93587.21;1836192;77;21157;-57
2021/04/05 11:23:57;;;;;;;6.55;4.90;;;;;;;15.28;25.93;93602.30;1836182;78;21199;-58
2021/04/05 11:26:32;;;;;;;4.58;4.03;;;;;;;15.33;25.13;93601.56;1806574;78;27223;-65
2021/04/05 11:28:59;;;;;;;5.80;4.27;;;;;;;15.48;24.94;93594.36;1836499;78;21211;-54
2021/04/05 11:31:27;;;;;;;6.65;4.37;;;;;;;15.44;24.51;93589.09;1836535;78;21471;-57
2021/04/05 11:33:59;;;;;;;5.67;4.58;;;;;;;15.52;25.27;93581.02;1806470;78;21423;-60
2021/04/05 11:36:43;;;;;;;5.58;4.50;;;;;;;15.65;24.85;93570.14;1811254;78;21195;-59
2021/04/05 11:39:17;;;;;;;18.52;8.85;;;;;;;15.74;24.74;93566.45;1793873;79;21651;-57
2021/04/05 11:41:50;;;;;;;11.25;5.05;;;;;;;15.85;24.60;93569.20;1804049;79;22655;-56
2021/04/05 11:44:20;;;;;;;7.37;3.70;;;;;;;15.98;24.46;93562.49;1803592;79;21467;-65
2021/04/05 11:46:49;;;;;;;5.83;4.50;;;;;;;16.06;23.63;93569.66;1803966;79;21768;-59
2021/04/05 11:49:20;;;;;;;12.83;5.90;;;;;;;16.08;23.72;93560.92;1803948;79;21304;-60
2021/04/05 11:52:14;;;;;;;11.48;6.28;;;;;;;16.00;23.67;93551.64;1803951;79;21133;-56
2021/04/05 11:54:55;;;;;;;6.08;5.15;;;;;;;16.09;24.69;93556.88;1803181;78;21599;-56
2021/04/05 11:57:36;;;;;;;11.57;10.23;;;;;;;16.35;23.78;93562.22;1803227;79;21950;-58
2021/04/05 12:00:13;;;;;;;16.07;8.18;;;;;;;16.35;23.95;93560.09;1804117;79;21403;-56
2021/04/05 12:03:06;;;;;;;32.93;20.68;;;;;;;16.48;23.48;93551.92;1804006;79;21173;-58
2021/04/05 12:06:09;;;;;;;25.80;8.60;;;;;;;16.60;24.09;93558.31;1803877;78;21965;-58
2021/04/05 12:09:07;;;;;;;9.40;5.00;;;;;;;16.67;23.56;93552.81;1800993;79;22465;-59
2021/04/05 12:11:47;;;;;;;13.88;9.85;;;;;;;16.42;23.43;93558.14;1803305;79;21431;-58
2021/04/05 12:14:25;;;;;;;26.55;13.13;;;;;;;16.20;24.81;93544.36;1803385;79;21130;-59
2021/04/05 12:16:55;;;;;;;9.00;6.55;;;;;;;16.10;24.01;93565.33;1803569;78;21171;-57
2021/04/05 12:19:29;;;;;;;28.92;10.80;;;;;;;16.00;24.12;93532.22;1803532;79;21136;-59
2021/04/05 12:21:58;;;;;;;10.82;7.37;;;;;;;16.00;24.04;93534.99;1803552;79;21388;-60
2021/04/05 12:24:34;;;;;;;10.15;5.62;;;;;;;16.12;24.19;93524.59;1803337;78;21164;-65
2021/04/05 12:27:10;;;;;;;34.92;24.63;;;;;;;16.33;24.37;93534.19;1802842;79;21428;-58
2021/04/05 12:29:40;;;;;;;19.90;12.82;;;;;;;16.47;24.34;93519.88;1803093;79;21410;-58
2021/04/05 12:34:57;;;;;;;11.23;8.67;;;;;;;16.45;24.09;93514.08;1884727;74;39034;-56
2021/04/05 12:37:27;;;;;;;13.32;6.40;;;;;;;16.37;23.88;93513.14;1812330;79;21829;-59
2021/04/05 12:40:00;;;;;;;30.95;20.12;;;;;;;16.34;24.35;93497.48;1812197;79;21480;-60